Terminal Aerodrome Forecast
Issued by NWS

Home | Current Version | Previous Version | Text Only | Print | Product List | Glossary On
Versions: 1 2 3 4 5 6 7 8 9 10 11 12 13 14 15 16 17 18 19 20 21 22 23 24 25 26 27 28
000
FTUS42 KMHX 251100 AAE
TAFISO
TAF AMD
KISO 251119Z 2511/2606 25010G15KT P6SM OVC150
     FM251600 29010G15KT P6SM SKC
     FM251800 30010KT P6SM SKC
     FM260000 00000KT P6SM SKC
      AMD LTD TO CLD VIS AND WIND=

USA.gov is the U.S. government's official web portal to all federal, state and local government web resources and services.